sensor_id;sensor_type;location;lat;lon;timestamp;P1;durP1;ratioP1;P2;durP2;ratioP2
54452;SDS011;40363;52.270;10.546;2023-08-01T00:01:51;1.48;;;0.73;;
54452;SDS011;40363;52.270;10.546;2023-08-01T00:04:18;3.53;;;1.20;;
54452;SDS011;40363;52.270;10.546;2023-08-01T00:06:44;1.98;;;1.23;;
54452;SDS011;40363;52.270;10.546;2023-08-01T00:09:11;2.78;;;1.20;;
54452;SDS011;40363;52.270;10.546;2023-08-01T00:11:37;2.13;;;0.90;;
54452;SDS011;40363;52.270;10.546;2023-08-01T00:14:04;2.60;;;1.30;;
54452;SDS011;40363;52.270;10.546;2023-08-01T00:16:31;4.43;;;1.25;;
54452;SDS011;40363;52.270;10.546;2023-08-01T00:18:59;1.13;;;1.00;;
54452;SDS011;40363;52.270;10.546;2023-08-01T00:21:26;2.17;;;1.27;;
54452;SDS011;40363;52.270;10.546;2023-08-01T00:23:52;2.42;;;1.25;;
54452;SDS011;40363;52.270;10.546;2023-08-01T00:26:19;2.28;;;1.30;;
54452;SDS011;40363;52.270;10.546;2023-08-01T00:28:46;3.47;;;1.55;;
54452;SDS011;40363;52.270;10.546;2023-08-01T00:31:12;3.10;;;1.23;;
54452;SDS011;40363;52.270;10.546;2023-08-01T00:33:39;3.30;;;1.63;;
54452;SDS011;40363;52.270;10.546;2023-08-01T00:36:07;2.75;;;1.27;;
54452;SDS011;40363;52.270;10.546;2023-08-01T00:38:36;2.90;;;1.45;;
54452;SDS011;40363;52.270;10.546;2023-08-01T00:41:03;1.40;;;1.08;;
54452;SDS011;40363;52.270;10.546;2023-08-01T00:43:29;6.18;;;1.55;;
54452;SDS011;40363;52.270;10.546;2023-08-01T00:45:59;3.45;;;1.30;;
54452;SDS011;40363;52.270;10.546;2023-08-01T00:48:27;3.55;;;1.45;;
54452;SDS011;40363;52.270;10.546;2023-08-01T00:50:54;2.90;;;1.90;;
54452;SDS011;40363;52.270;10.546;2023-08-01T00:53:23;4.18;;;1.90;;
54452;SDS011;40363;52.270;10.546;2023-08-01T00:55:50;1.75;;;1.33;;
54452;SDS011;40363;52.270;10.546;2023-08-01T00:58:17;3.85;;;1.92;;
54452;SDS011;40363;52.270;10.546;2023-08-01T01:00:44;2.28;;;1.27;;
54452;SDS011;40363;52.270;10.546;2023-08-01T01:03:11;2.85;;;1.52;;
54452;SDS011;40363;52.270;10.546;2023-08-01T01:05:38;4.00;;;1.52;;
54452;SDS011;40363;52.270;10.546;2023-08-01T01:08:09;2.55;;;1.60;;
54452;SDS011;40363;52.270;10.546;2023-08-01T01:10:37;1.83;;;1.27;;
54452;SDS011;40363;52.270;10.546;2023-08-01T01:13:03;5.97;;;1.85;;
54452;SDS011;40363;52.270;10.546;2023-08-01T01:15:30;2.92;;;1.63;;
54452;SDS011;40363;52.270;10.546;2023-08-01T01:17:57;4.70;;;1.60;;
54452;SDS011;40363;52.270;10.546;2023-08-01T01:20:24;3.75;;;1.27;;
54452;SDS011;40363;52.270;10.546;2023-08-01T01:22:53;3.95;;;1.42;;
54452;SDS011;40363;52.270;10.546;2023-08-01T01:25:22;2.33;;;1.60;;
54452;SDS011;40363;52.270;10.546;2023-08-01T01:27:50;4.70;;;1.55;;
54452;SDS011;40363;52.270;10.546;2023-08-01T01:30:19;3.17;;;1.63;;
54452;SDS011;40363;52.270;10.546;2023-08-01T01:32:46;3.58;;;2.10;;
54452;SDS011;40363;52.270;10.546;2023-08-01T01:35:14;4.35;;;2.70;;
54452;SDS011;40363;52.270;10.546;2023-08-01T01:37:40;4.78;;;2.75;;
54452;SDS011;40363;52.270;10.546;2023-08-01T01:40:09;5.55;;;3.17;;
54452;SDS011;40363;52.270;10.546;2023-08-01T01:42:36;11.43;;;3.60;;
54452;SDS011;40363;52.270;10.546;2023-08-01T01:45:03;6.47;;;3.35;;
54452;SDS011;40363;52.270;10.546;2023-08-01T01:47:30;7.05;;;3.90;;
54452;SDS011;40363;52.270;10.546;2023-08-01T01:49:57;6.82;;;4.07;;
54452;SDS011;40363;52.270;10.546;2023-08-01T01:52:23;9.27;;;3.40;;
54452;SDS011;40363;52.270;10.546;2023-08-01T01:54:50;6.53;;;3.47;;
54452;SDS011;40363;52.270;10.546;2023-08-01T01:57:18;5.55;;;2.40;;
54452;SDS011;40363;52.270;10.546;2023-08-01T01:59:44;6.20;;;2.92;;
54452;SDS011;40363;52.270;10.546;2023-08-01T02:02:11;3.45;;;2.10;;
54452;SDS011;40363;52.270;10.546;2023-08-01T02:04:37;5.60;;;2.03;;
54452;SDS011;40363;52.270;10.546;2023-08-01T02:07:04;7.53;;;2.10;;
54452;SDS011;40363;52.270;10.546;2023-08-01T02:09:31;5.22;;;1.92;;
54452;SDS011;40363;52.270;10.546;2023-08-01T02:11:58;3.33;;;1.67;;
54452;SDS011;40363;52.270;10.546;2023-08-01T02:14:26;6.07;;;1.40;;
54452;SDS011;40363;52.270;10.546;2023-08-01T02:16:52;2.40;;;1.23;;
54452;SDS011;40363;52.270;10.546;2023-08-01T02:19:19;1.80;;;1.13;;
54452;SDS011;40363;52.270;10.546;2023-08-01T02:21:45;3.22;;;1.55;;
54452;SDS011;40363;52.270;10.546;2023-08-01T02:24:12;5.45;;;1.70;;
54452;SDS011;40363;52.270;10.546;2023-08-01T02:26:38;2.80;;;1.20;;
54452;SDS011;40363;52.270;10.546;2023-08-01T02:29:05;2.80;;;1.58;;
54452;SDS011;40363;52.270;10.546;2023-08-01T02:31:33;2.97;;;1.40;;
54452;SDS011;40363;52.270;10.546;2023-08-01T02:34:00;3.10;;;1.95;;
54452;SDS011;40363;52.270;10.546;2023-08-01T02:36:27;1.70;;;1.17;;
54452;SDS011;40363;52.270;10.546;2023-08-01T02:38:53;6.38;;;2.20;;
54452;SDS011;40363;52.270;10.546;2023-08-01T02:41:20;3.28;;;1.77;;
54452;SDS011;40363;52.270;10.546;2023-08-01T02:43:47;3.83;;;2.10;;
54452;SDS011;40363;52.270;10.546;2023-08-01T02:46:13;6.32;;;2.10;;
54452;SDS011;40363;52.270;10.546;2023-08-01T02:48:42;3.55;;;1.40;;
54452;SDS011;40363;52.270;10.546;2023-08-01T02:51:08;2.50;;;1.33;;
54452;SDS011;40363;52.270;10.546;2023-08-01T02:53:35;2.45;;;1.13;;
54452;SDS011;40363;52.270;10.546;2023-08-01T02:56:02;3.22;;;1.48;;
54452;SDS011;40363;52.270;10.546;2023-08-01T02:58:31;3.45;;;1.48;;
54452;SDS011;40363;52.270;10.546;2023-08-01T03:00:58;2.65;;;1.10;;
54452;SDS011;40363;52.270;10.546;2023-08-01T03:03:24;2.40;;;1.05;;
54452;SDS011;40363;52.270;10.546;2023-08-01T03:05:53;1.92;;;1.08;;
54452;SDS011;40363;52.270;10.546;2023-08-01T03:08:19;1.65;;;1.10;;
54452;SDS011;40363;52.270;10.546;2023-08-01T03:10:46;1.48;;;0.98;;
54452;SDS011;40363;52.270;10.546;2023-08-01T03:13:12;1.70;;;0.93;;
54452;SDS011;40363;52.270;10.546;2023-08-01T03:15:39;1.50;;;1.00;;
54452;SDS011;40363;52.270;10.546;2023-08-01T03:18:06;1.65;;;1.17;;
54452;SDS011;40363;52.270;10.546;2023-08-01T03:20:32;1.80;;;1.08;;
54452;SDS011;40363;52.270;10.546;2023-08-01T03:23:01;6.07;;;1.00;;
54452;SDS011;40363;52.270;10.546;2023-08-01T03:25:27;1.98;;;0.95;;
54452;SDS011;40363;52.270;10.546;2023-08-01T03:27:54;2.28;;;0.88;;
54452;SDS011;40363;52.270;10.546;2023-08-01T03:30:20;3.03;;;1.38;;
54452;SDS011;40363;52.270;10.546;2023-08-01T03:32:47;3.38;;;1.27;;
54452;SDS011;40363;52.270;10.546;2023-08-01T03:35:14;2.40;;;1.35;;
54452;SDS011;40363;52.270;10.546;2023-08-01T03:37:40;2.97;;;1.08;;
54452;SDS011;40363;52.270;10.546;2023-08-01T03:40:08;2.63;;;1.20;;
54452;SDS011;40363;52.270;10.546;2023-08-01T03:42:35;2.75;;;1.48;;
54452;SDS011;40363;52.270;10.546;2023-08-01T03:45:02;4.45;;;1.30;;
54452;SDS011;40363;52.270;10.546;2023-08-01T03:47:30;3.17;;;1.52;;
54452;SDS011;40363;52.270;10.546;2023-08-01T03:49:57;3.30;;;1.55;;
54452;SDS011;40363;52.270;10.546;2023-08-01T03:52:23;3.50;;;1.40;;
54452;SDS011;40363;52.270;10.546;2023-08-01T03:54:53;4.22;;;1.88;;
54452;SDS011;40363;52.270;10.546;2023-08-01T03:57:21;3.67;;;1.50;;
54452;SDS011;40363;52.270;10.546;2023-08-01T03:59:48;4.35;;;2.15;;
54452;SDS011;40363;52.270;10.546;2023-08-01T04:02:14;2.38;;;1.35;;
54452;SDS011;40363;52.270;10.546;2023-08-01T04:04:41;3.30;;;1.30;;
54452;SDS011;40363;52.270;10.546;2023-08-01T04:07:08;3.33;;;1.30;;
54452;SDS011;40363;52.270;10.546;2023-08-01T04:09:34;3.30;;;1.80;;
54452;SDS011;40363;52.270;10.546;2023-08-01T04:12:04;2.85;;;1.60;;
54452;SDS011;40363;52.270;10.546;2023-08-01T04:14:33;2.72;;;1.38;;
54452;SDS011;40363;52.270;10.546;2023-08-01T04:16:59;2.47;;;1.02;;
54452;SDS011;40363;52.270;10.546;2023-08-01T04:19:26;1.92;;;0.98;;
54452;SDS011;40363;52.270;10.546;2023-08-01T04:21:53;3.55;;;1.40;;
54452;SDS011;40363;52.270;10.546;2023-08-01T04:24:19;2.00;;;1.27;;
54452;SDS011;40363;52.270;10.546;2023-08-01T04:26:46;3.13;;;1.15;;
54452;SDS011;40363;52.270;10.546;2023-08-01T04:29:12;3.00;;;1.10;;
54452;SDS011;40363;52.270;10.546;2023-08-01T04:31:42;2.30;;;0.95;;
54452;SDS011;40363;52.270;10.546;2023-08-01T04:34:09;3.95;;;1.08;;
54452;SDS011;40363;52.270;10.546;2023-08-01T04:36:35;4.53;;;1.00;;
54452;SDS011;40363;52.270;10.546;2023-08-01T04:39:02;2.13;;;0.88;;
54452;SDS011;40363;52.270;10.546;2023-08-01T04:41:29;3.67;;;1.25;;
54452;SDS011;40363;52.270;10.546;2023-08-01T04:43:55;2.10;;;1.00;;
54452;SDS011;40363;52.270;10.546;2023-08-01T04:46:22;1.90;;;1.10;;
54452;SDS011;40363;52.270;10.546;2023-08-01T04:48:50;3.72;;;1.00;;
54452;SDS011;40363;52.270;10.546;2023-08-01T04:51:16;3.58;;;0.98;;
54452;SDS011;40363;52.270;10.546;2023-08-01T04:53:43;2.95;;;0.88;;
54452;SDS011;40363;52.270;10.546;2023-08-01T04:56:09;3.50;;;1.25;;
54452;SDS011;40363;52.270;10.546;2023-08-01T04:58:36;1.88;;;0.82;;
54452;SDS011;40363;52.270;10.546;2023-08-01T05:01:02;1.67;;;1.13;;
54452;SDS011;40363;52.270;10.546;2023-08-01T05:03:29;1.23;;;0.75;;
54452;SDS011;40363;52.270;10.546;2023-08-01T05:05:57;2.28;;;1.00;;
54452;SDS011;40363;52.270;10.546;2023-08-01T05:08:23;1.55;;;0.95;;
54452;SDS011;40363;52.270;10.546;2023-08-01T05:10:50;2.65;;;0.77;;
54452;SDS011;40363;52.270;10.546;2023-08-01T05:13:17;2.13;;;1.15;;
54452;SDS011;40363;52.270;10.546;2023-08-01T05:15:44;1.10;;;0.70;;
54452;SDS011;40363;52.270;10.546;2023-08-01T05:18:12;2.75;;;1.08;;
54452;SDS011;40363;52.270;10.546;2023-08-01T05:20:39;0.55;;;0.50;;
54452;SDS011;40363;52.270;10.546;2023-08-01T05:23:07;1.45;;;0.68;;
54452;SDS011;40363;52.270;10.546;2023-08-01T05:25:33;0.47;;;0.40;;
54452;SDS011;40363;52.270;10.546;2023-08-01T05:28:00;0.95;;;0.40;;
54452;SDS011;40363;52.270;10.546;2023-08-01T05:30:27;2.63;;;0.55;;
54452;SDS011;40363;52.270;10.546;2023-08-01T05:32:53;1.45;;;0.65;;
54452;SDS011;40363;52.270;10.546;2023-08-01T05:35:20;0.98;;;0.50;;
54452;SDS011;40363;52.270;10.546;2023-08-01T05:37:47;1.60;;;0.45;;
54452;SDS011;40363;52.270;10.546;2023-08-01T05:40:15;1.45;;;0.73;;
54452;SDS011;40363;52.270;10.546;2023-08-01T05:42:41;1.02;;;0.73;;
54452;SDS011;40363;52.270;10.546;2023-08-01T05:45:08;0.98;;;0.75;;
54452;SDS011;40363;52.270;10.546;2023-08-01T05:47:36;0.73;;;0.30;;
54452;SDS011;40363;52.270;10.546;2023-08-01T05:50:05;0.60;;;0.30;;
54452;SDS011;40363;52.270;10.546;2023-08-01T05:52:32;0.85;;;0.47;;
54452;SDS011;40363;52.270;10.546;2023-08-01T05:54:59;0.93;;;0.50;;
54452;SDS011;40363;52.270;10.546;2023-08-01T05:57:27;0.80;;;0.20;;
54452;SDS011;40363;52.270;10.546;2023-08-01T05:59:54;1.17;;;0.30;;
54452;SDS011;40363;52.270;10.546;2023-08-01T06:02:20;1.70;;;0.52;;
54452;SDS011;40363;52.270;10.546;2023-08-01T06:04:47;1.25;;;0.40;;
54452;SDS011;40363;52.270;10.546;2023-08-01T06:07:13;2.63;;;0.40;;
54452;SDS011;40363;52.270;10.546;2023-08-01T06:09:40;1.00;;;0.47;;
54452;SDS011;40363;52.270;10.546;2023-08-01T06:12:07;1.58;;;0.40;;
54452;SDS011;40363;52.270;10.546;2023-08-01T06:14:35;1.45;;;0.70;;
54452;SDS011;40363;52.270;10.546;2023-08-01T06:17:01;1.65;;;0.35;;
54452;SDS011;40363;52.270;10.546;2023-08-01T06:19:28;1.75;;;0.40;;
54452;SDS011;40363;52.270;10.546;2023-08-01T06:21:55;2.17;;;0.20;;
54452;SDS011;40363;52.270;10.546;2023-08-01T06:24:21;1.75;;;0.57;;
54452;SDS011;40363;52.270;10.546;2023-08-01T06:26:48;0.60;;;0.40;;
54452;SDS011;40363;52.270;10.546;2023-08-01T06:29:17;0.98;;;0.32;;
54452;SDS011;40363;52.270;10.546;2023-08-01T06:31:45;3.85;;;0.40;;
54452;SDS011;40363;52.270;10.546;2023-08-01T06:34:11;0.85;;;0.40;;
54452;SDS011;40363;52.270;10.546;2023-08-01T06:36:38;0.50;;;0.40;;
54452;SDS011;40363;52.270;10.546;2023-08-01T06:39:04;0.93;;;0.50;;
54452;SDS011;40363;52.270;10.546;2023-08-01T06:41:31;0.68;;;0.40;;
54452;SDS011;40363;52.270;10.546;2023-08-01T06:43:57;0.80;;;0.40;;
54452;SDS011;40363;52.270;10.546;2023-08-01T06:46:24;0.82;;;0.50;;
54452;SDS011;40363;52.270;10.546;2023-08-01T06:48:52;0.75;;;0.45;;
54452;SDS011;40363;52.270;10.546;2023-08-01T06:51:18;0.90;;;0.40;;
54452;SDS011;40363;52.270;10.546;2023-08-01T06:53:45;1.23;;;0.52;;
54452;SDS011;40363;52.270;10.546;2023-08-01T06:56:11;0.45;;;0.40;;
54452;SDS011;40363;52.270;10.546;2023-08-01T06:58:38;1.60;;;0.50;;
54452;SDS011;40363;52.270;10.546;2023-08-01T07:01:04;1.33;;;0.85;;
54452;SDS011;40363;52.270;10.546;2023-08-01T07:03:31;2.17;;;0.70;;
54452;SDS011;40363;52.270;10.546;2023-08-01T07:05:59;2.15;;;0.80;;
54452;SDS011;40363;52.270;10.546;2023-08-01T07:08:26;4.05;;;0.90;;
54452;SDS011;40363;52.270;10.546;2023-08-01T07:10:52;4.07;;;1.05;;
54452;SDS011;40363;52.270;10.546;2023-08-01T07:13:19;2.40;;;0.88;;
54452;SDS011;40363;52.270;10.546;2023-08-01T07:15:47;1.98;;;0.88;;
54452;SDS011;40363;52.270;10.546;2023-08-01T07:18:14;3.05;;;1.02;;
54452;SDS011;40363;52.270;10.546;2023-08-01T07:20:40;3.42;;;1.10;;
54452;SDS011;40363;52.270;10.546;2023-08-01T07:23:09;1.98;;;1.63;;
54452;SDS011;40363;52.270;10.546;2023-08-01T07:25:35;5.93;;;1.30;;
54452;SDS011;40363;52.270;10.546;2023-08-01T07:28:02;10.07;;;1.60;;
54452;SDS011;40363;52.270;10.546;2023-08-01T07:30:29;14.32;;;2.38;;
54452;SDS011;40363;52.270;10.546;2023-08-01T07:32:55;6.38;;;1.73;;
54452;SDS011;40363;52.270;10.546;2023-08-01T07:35:22;4.20;;;1.40;;
54452;SDS011;40363;52.270;10.546;2023-08-01T07:37:48;12.35;;;2.22;;
54452;SDS011;40363;52.270;10.546;2023-08-01T07:40:16;14.77;;;2.55;;
54452;SDS011;40363;52.270;10.546;2023-08-01T07:42:43;26.20;;;3.03;;
54452;SDS011;40363;52.270;10.546;2023-08-01T07:45:11;12.85;;;2.22;;
54452;SDS011;40363;52.270;10.546;2023-08-01T07:47:37;5.82;;;1.73;;
54452;SDS011;40363;52.270;10.546;2023-08-01T07:50:04;3.85;;;1.27;;
54452;SDS011;40363;52.270;10.546;2023-08-01T07:52:32;5.57;;;1.33;;
54452;SDS011;40363;52.270;10.546;2023-08-01T07:54:58;2.10;;;1.08;;
54452;SDS011;40363;52.270;10.546;2023-08-01T07:57:26;4.30;;;1.27;;
54452;SDS011;40363;52.270;10.546;2023-08-01T07:59:53;2.45;;;0.90;;
54452;SDS011;40363;52.270;10.546;2023-08-01T08:02:20;2.42;;;1.20;;
54452;SDS011;40363;52.270;10.546;2023-08-01T08:04:46;5.45;;;1.42;;
54452;SDS011;40363;52.270;10.546;2023-08-01T08:07:13;5.68;;;2.05;;
54452;SDS011;40363;52.270;10.546;2023-08-01T08:09:40;5.57;;;2.53;;
54452;SDS011;40363;52.270;10.546;2023-08-01T08:12:06;9.02;;;3.25;;
54452;SDS011;40363;52.270;10.546;2023-08-01T08:14:35;13.73;;;3.80;;
54452;SDS011;40363;52.270;10.546;2023-08-01T08:17:02;9.35;;;3.40;;
54452;SDS011;40363;52.270;10.546;2023-08-01T08:19:29;14.63;;;3.67;;
54452;SDS011;40363;52.270;10.546;2023-08-01T08:21:55;21.58;;;4.40;;
54452;SDS011;40363;52.270;10.546;2023-08-01T08:24:22;7.95;;;3.17;;
54452;SDS011;40363;52.270;10.546;2023-08-01T08:26:48;10.43;;;3.42;;
54452;SDS011;40363;52.270;10.546;2023-08-01T08:29:15;5.80;;;2.20;;
54452;SDS011;40363;52.270;10.546;2023-08-01T08:31:43;4.68;;;2.30;;
54452;SDS011;40363;52.270;10.546;2023-08-01T08:34:10;5.97;;;2.38;;
54452;SDS011;40363;52.270;10.546;2023-08-01T08:36:36;8.32;;;2.35;;
54452;SDS011;40363;52.270;10.546;2023-08-01T08:39:03;5.05;;;2.25;;
54452;SDS011;40363;52.270;10.546;2023-08-01T08:41:30;4.15;;;2.45;;
54452;SDS011;40363;52.270;10.546;2023-08-01T08:44:01;6.50;;;2.67;;
54452;SDS011;40363;52.270;10.546;2023-08-01T08:46:34;5.28;;;2.30;;
54452;SDS011;40363;52.270;10.546;2023-08-01T08:49:08;5.07;;;2.67;;
54452;SDS011;40363;52.270;10.546;2023-08-01T08:51:35;9.30;;;2.47;;
54452;SDS011;40363;52.270;10.546;2023-08-01T08:54:02;7.05;;;2.78;;
54452;SDS011;40363;52.270;10.546;2023-08-01T08:56:30;4.85;;;2.60;;
54452;SDS011;40363;52.270;10.546;2023-08-01T08:58:58;7.75;;;2.63;;
54452;SDS011;40363;52.270;10.546;2023-08-01T09:01:25;7.63;;;2.72;;
54452;SDS011;40363;52.270;10.546;2023-08-01T09:03:52;5.80;;;2.80;;
54452;SDS011;40363;52.270;10.546;2023-08-01T09:06:23;5.72;;;3.20;;
54452;SDS011;40363;52.270;10.546;2023-08-01T09:08:55;5.07;;;2.63;;
54452;SDS011;40363;52.270;10.546;2023-08-01T09:11:26;7.30;;;2.80;;
54452;SDS011;40363;52.270;10.546;2023-08-01T09:13:52;5.93;;;2.60;;
54452;SDS011;40363;52.270;10.546;2023-08-01T09:16:19;7.10;;;2.42;;
54452;SDS011;40363;52.270;10.546;2023-08-01T09:18:46;6.85;;;2.55;;
54452;SDS011;40363;52.270;10.546;2023-08-01T09:21:14;3.10;;;2.40;;
54452;SDS011;40363;52.270;10.546;2023-08-01T09:23:42;3.92;;;2.17;;
54452;SDS011;40363;52.270;10.546;2023-08-01T09:26:12;5.78;;;2.38;;
54452;SDS011;40363;52.270;10.546;2023-08-01T09:28:39;6.50;;;2.70;;
54452;SDS011;40363;52.270;10.546;2023-08-01T09:31:06;3.75;;;2.10;;
54452;SDS011;40363;52.270;10.546;2023-08-01T09:33:37;3.08;;;2.70;;
54452;SDS011;40363;52.270;10.546;2023-08-01T09:36:05;7.05;;;2.25;;
54452;SDS011;40363;52.270;10.546;2023-08-01T09:38:33;6.10;;;2.65;;
54452;SDS011;40363;52.270;10.546;2023-08-01T09:41:01;3.42;;;2.05;;
54452;SDS011;40363;52.270;10.546;2023-08-01T09:43:32;6.78;;;2.38;;
54452;SDS011;40363;52.270;10.546;2023-08-01T09:46:00;6.90;;;2.28;;
54452;SDS011;40363;52.270;10.546;2023-08-01T09:48:27;5.35;;;2.47;;
54452;SDS011;40363;52.270;10.546;2023-08-01T09:51:05;4.80;;;2.35;;
54452;SDS011;40363;52.270;10.546;2023-08-01T09:53:32;4.93;;;2.00;;
54452;SDS011;40363;52.270;10.546;2023-08-01T09:55:59;3.55;;;2.15;;
54452;SDS011;40363;52.270;10.546;2023-08-01T09:58:29;6.00;;;1.92;;
54452;SDS011;40363;52.270;10.546;2023-08-01T10:00:58;4.80;;;2.22;;
54452;SDS011;40363;52.270;10.546;2023-08-01T10:03:25;6.20;;;2.08;;
54452;SDS011;40363;52.270;10.546;2023-08-01T10:05:53;4.32;;;1.63;;
54452;SDS011;40363;52.270;10.546;2023-08-01T10:08:21;4.57;;;1.83;;
54452;SDS011;40363;52.270;10.546;2023-08-01T10:10:48;2.47;;;1.33;;
54452;SDS011;40363;52.270;10.546;2023-08-01T10:13:17;4.97;;;1.45;;
54452;SDS011;40363;52.270;10.546;2023-08-01T10:15:46;3.55;;;1.60;;
54452;SDS011;40363;52.270;10.546;2023-08-01T10:18:14;6.40;;;1.63;;
54452;SDS011;40363;52.270;10.546;2023-08-01T10:20:43;6.82;;;1.75;;
54452;SDS011;40363;52.270;10.546;2023-08-01T10:23:11;2.20;;;1.25;;
54452;SDS011;40363;52.270;10.546;2023-08-01T10:25:38;2.75;;;1.38;;
54452;SDS011;40363;52.270;10.546;2023-08-01T10:28:06;5.43;;;1.52;;
54452;SDS011;40363;52.270;10.546;2023-08-01T10:30:33;3.10;;;1.13;;
54452;SDS011;40363;52.270;10.546;2023-08-01T10:33:00;1.58;;;1.15;;
54452;SDS011;40363;52.270;10.546;2023-08-01T10:35:33;2.97;;;1.23;;
54452;SDS011;40363;52.270;10.546;2023-08-01T10:38:04;3.50;;;1.53;;
54452;SDS011;40363;52.270;10.546;2023-08-01T10:40:35;2.50;;;1.30;;
54452;SDS011;40363;52.270;10.546;2023-08-01T10:43:02;2.80;;;1.70;;
54452;SDS011;40363;52.270;10.546;2023-08-01T10:45:29;5.28;;;1.52;;
54452;SDS011;40363;52.270;10.546;2023-08-01T10:48:07;3.50;;;1.50;;
54452;SDS011;40363;52.270;10.546;2023-08-01T10:50:34;3.58;;;1.50;;
54452;SDS011;40363;52.270;10.546;2023-08-01T10:53:02;7.07;;;1.90;;
54452;SDS011;40363;52.270;10.546;2023-08-01T10:55:38;5.07;;;1.60;;
54452;SDS011;40363;52.270;10.546;2023-08-01T10:58:05;2.90;;;1.95;;
54452;SDS011;40363;52.270;10.546;2023-08-01T11:00:32;3.50;;;1.60;;
54452;SDS011;40363;52.270;10.546;2023-08-01T11:02:59;3.10;;;1.60;;
54452;SDS011;40363;52.270;10.546;2023-08-01T11:05:28;3.83;;;1.50;;
54452;SDS011;40363;52.270;10.546;2023-08-01T11:07:55;5.18;;;2.17;;
54452;SDS011;40363;52.270;10.546;2023-08-01T11:10:26;1.40;;;1.20;;
54452;SDS011;40363;52.270;10.546;2023-08-01T11:12:53;1.80;;;1.27;;
54452;SDS011;40363;52.270;10.546;2023-08-01T11:15:21;3.00;;;1.88;;
54452;SDS011;40363;52.270;10.546;2023-08-01T11:17:48;2.35;;;1.30;;
54452;SDS011;40363;52.270;10.546;2023-08-01T11:20:17;2.70;;;1.27;;
54452;SDS011;40363;52.270;10.546;2023-08-01T11:22:52;3.95;;;1.30;;
54452;SDS011;40363;52.270;10.546;2023-08-01T11:25:31;1.98;;;1.40;;
54452;SDS011;40363;52.270;10.546;2023-08-01T11:28:03;3.92;;;1.40;;
54452;SDS011;40363;52.270;10.546;2023-08-01T11:30:31;3.55;;;1.17;;
54452;SDS011;40363;52.270;10.546;2023-08-01T11:32:58;2.47;;;1.40;;
54452;SDS011;40363;52.270;10.546;2023-08-01T11:35:25;3.55;;;1.20;;
54452;SDS011;40363;52.270;10.546;2023-08-01T11:37:53;2.45;;;1.40;;
54452;SDS011;40363;52.270;10.546;2023-08-01T11:40:20;2.17;;;1.30;;
54452;SDS011;40363;52.270;10.546;2023-08-01T11:42:48;1.60;;;1.25;;
54452;SDS011;40363;52.270;10.546;2023-08-01T11:45:18;1.48;;;1.17;;
54452;SDS011;40363;52.270;10.546;2023-08-01T11:47:46;3.63;;;1.45;;
54452;SDS011;40363;52.270;10.546;2023-08-01T11:50:14;3.83;;;1.30;;
54452;SDS011;40363;52.270;10.546;2023-08-01T11:52:41;3.05;;;1.02;;
54452;SDS011;40363;52.270;10.546;2023-08-01T11:55:19;1.10;;;0.90;;
54452;SDS011;40363;52.270;10.546;2023-08-01T11:57:53;3.40;;;1.42;;
54452;SDS011;40363;52.270;10.546;2023-08-01T12:00:21;2.72;;;1.27;;
54452;SDS011;40363;52.270;10.546;2023-08-01T12:02:49;3.72;;;1.27;;
54452;SDS011;40363;52.270;10.546;2023-08-01T12:05:21;2.28;;;1.02;;
54452;SDS011;40363;52.270;10.546;2023-08-01T12:07:48;3.50;;;1.05;;
54452;SDS011;40363;52.270;10.546;2023-08-01T12:10:14;5.03;;;1.35;;
54452;SDS011;40363;52.270;10.546;2023-08-01T12:12:45;3.03;;;1.15;;
54452;SDS011;40363;52.270;10.546;2023-08-01T12:15:13;4.15;;;1.50;;
54452;SDS011;40363;52.270;10.546;2023-08-01T12:17:40;3.58;;;1.27;;
54452;SDS011;40363;52.270;10.546;2023-08-01T12:20:07;3.13;;;1.30;;
54452;SDS011;40363;52.270;10.546;2023-08-01T12:22:34;2.58;;;1.40;;
54452;SDS011;40363;52.270;10.546;2023-08-01T12:25:01;2.65;;;1.25;;
54452;SDS011;40363;52.270;10.546;2023-08-01T12:27:27;4.60;;;1.40;;
54452;SDS011;40363;52.270;10.546;2023-08-01T12:29:55;3.70;;;1.30;;
54452;SDS011;40363;52.270;10.546;2023-08-01T12:32:22;5.90;;;1.48;;
54452;SDS011;40363;52.270;10.546;2023-08-01T12:34:48;5.72;;;1.40;;
54452;SDS011;40363;52.270;10.546;2023-08-01T12:37:15;3.33;;;1.23;;
54452;SDS011;40363;52.270;10.546;2023-08-01T12:39:41;2.95;;;1.27;;
54452;SDS011;40363;52.270;10.546;2023-08-01T12:42:08;2.45;;;1.25;;
54452;SDS011;40363;52.270;10.546;2023-08-01T12:44:35;2.17;;;1.13;;
54452;SDS011;40363;52.270;10.546;2023-08-01T12:47:03;3.28;;;1.20;;
54452;SDS011;40363;52.270;10.546;2023-08-01T12:49:32;3.60;;;1.08;;
54452;SDS011;40363;52.270;10.546;2023-08-01T12:51:59;3.28;;;1.23;;
54452;SDS011;40363;52.270;10.546;2023-08-01T12:54:25;2.15;;;1.08;;
54452;SDS011;40363;52.270;10.546;2023-08-01T12:56:52;2.20;;;0.95;;
54452;SDS011;40363;52.270;10.546;2023-08-01T12:59:19;3.38;;;1.35;;
54452;SDS011;40363;52.270;10.546;2023-08-01T13:01:45;3.63;;;1.50;;
54452;SDS011;40363;52.270;10.546;2023-08-01T13:04:13;2.35;;;1.40;;
54452;SDS011;40363;52.270;10.546;2023-08-01T13:06:40;3.33;;;1.55;;
54452;SDS011;40363;52.270;10.546;2023-08-01T13:09:06;3.90;;;1.38;;
54452;SDS011;40363;52.270;10.546;2023-08-01T13:11:33;2.28;;;1.35;;
54452;SDS011;40363;52.270;10.546;2023-08-01T13:13:59;2.88;;;1.45;;
54452;SDS011;40363;52.270;10.546;2023-08-01T13:16:26;2.00;;;1.42;;
54452;SDS011;40363;52.270;10.546;2023-08-01T13:18:52;5.57;;;1.70;;
54452;SDS011;40363;52.270;10.546;2023-08-01T13:21:23;2.95;;;1.58;;
54452;SDS011;40363;52.270;10.546;2023-08-01T13:23:49;4.30;;;1.85;;
54452;SDS011;40363;52.270;10.546;2023-08-01T13:26:16;4.50;;;1.90;;
54452;SDS011;40363;52.270;10.546;2023-08-01T13:28:42;1.95;;;1.27;;
54452;SDS011;40363;52.270;10.546;2023-08-01T13:31:09;3.25;;;1.40;;
54452;SDS011;40363;52.270;10.546;2023-08-01T13:33:36;3.22;;;1.88;;
54452;SDS011;40363;52.270;10.546;2023-08-01T13:36:02;5.95;;;1.67;;
54452;SDS011;40363;52.270;10.546;2023-08-01T13:38:30;2.72;;;1.83;;
54452;SDS011;40363;52.270;10.546;2023-08-01T13:40:58;2.53;;;1.42;;
54452;SDS011;40363;52.270;10.546;2023-08-01T13:43:25;2.90;;;1.60;;
54452;SDS011;40363;52.270;10.546;2023-08-01T13:45:52;1.67;;;1.20;;
54452;SDS011;40363;52.270;10.546;2023-08-01T13:48:19;1.88;;;1.02;;
54452;SDS011;40363;52.270;10.546;2023-08-01T13:50:45;2.92;;;1.10;;
54452;SDS011;40363;52.270;10.546;2023-08-01T13:53:12;2.70;;;1.15;;
54452;SDS011;40363;52.270;10.546;2023-08-01T13:55:40;1.80;;;1.00;;
54452;SDS011;40363;52.270;10.546;2023-08-01T13:58:07;2.53;;;0.90;;
54452;SDS011;40363;52.270;10.546;2023-08-01T14:00:33;2.10;;;1.30;;
54452;SDS011;40363;52.270;10.546;2023-08-01T14:03:00;4.28;;;1.40;;
54452;SDS011;40363;52.270;10.546;2023-08-01T14:05:27;2.08;;;1.55;;
54452;SDS011;40363;52.270;10.546;2023-08-01T14:07:54;3.28;;;1.88;;
54452;SDS011;40363;52.270;10.546;2023-08-01T14:10:21;2.55;;;1.33;;
54452;SDS011;40363;52.270;10.546;2023-08-01T14:12:49;2.88;;;1.52;;
54452;SDS011;40363;52.270;10.546;2023-08-01T14:15:16;1.95;;;1.30;;
54452;SDS011;40363;52.270;10.546;2023-08-01T14:17:43;2.42;;;0.93;;
54452;SDS011;40363;52.270;10.546;2023-08-01T14:20:10;1.60;;;1.30;;
54452;SDS011;40363;52.270;10.546;2023-08-01T14:22:37;2.67;;;1.33;;
54452;SDS011;40363;52.270;10.546;2023-08-01T14:25:04;1.95;;;1.08;;
54452;SDS011;40363;52.270;10.546;2023-08-01T14:27:32;3.28;;;1.45;;
54452;SDS011;40363;52.270;10.546;2023-08-01T14:30:00;3.03;;;1.58;;
54452;SDS011;40363;52.270;10.546;2023-08-01T14:32:27;4.18;;;1.42;;
54452;SDS011;40363;52.270;10.546;2023-08-01T14:34:54;6.28;;;1.58;;